Time;durP1;ratioP1;P1;durP2;ratioP2;P2;SDS_P1;SDS_P2;PMS_P1;PMS_P2;Temp;Humidity;BMP_temperature;BMP_pressure;BME280_temperature;BME280_humidity;BME280_pressure;Samples;Min_cycle;Max_cycle;Signal;HPM_P1;HPM_P2
2022/03/08 00:00:34;;;;;;;14.00;8.45;;;3.00;67.10;;;;;;5113448;28;20489;-73
2022/03/08 00:02:59;;;;;;;14.70;9.15;;;3.00;67.20;;;;;;5113564;28;20111;-73
2022/03/08 00:05:26;;;;;;;13.43;8.48;;;3.00;67.40;;;;;;5112839;28;20114;-73
2022/03/08 00:07:52;;;;;;;12.45;8.50;;;2.90;67.30;;;;;;5113514;28;20117;-73
2022/03/08 00:10:18;;;;;;;12.52;8.63;;;2.90;67.30;;;;;;5113348;28;20038;-73
2022/03/08 00:12:46;;;;;;;13.85;8.98;;;2.90;67.30;;;;;;5112974;28;20023;-73
2022/03/08 00:15:17;;;;;;;16.33;8.63;;;2.90;67.50;;;;;;5113572;28;20023;-71
2022/03/08 00:17:43;;;;;;;13.13;9.10;;;2.90;67.80;;;;;;5112641;28;20081;-73
2022/03/08 00:20:09;;;;;;;16.80;9.68;;;2.80;68.10;;;;;;5114318;28;20120;-73
2022/03/08 00:22:36;;;;;;;13.95;8.98;;;2.80;68.10;;;;;;5112217;28;20102;-72
2022/03/08 00:25:05;;;;;;;13.57;8.70;;;2.70;68.20;;;;;;5112968;28;20027;-73
2022/03/08 00:27:31;;;;;;;13.93;9.30;;;2.70;68.00;;;;;;5112197;28;20484;-73
2022/03/08 00:29:57;;;;;;;16.77;9.20;;;2.70;68.20;;;;;;5112279;28;20106;-73
2022/03/08 00:32:23;;;;;;;13.70;8.82;;;2.70;68.30;;;;;;5112230;28;20456;-75
2022/03/08 00:34:49;;;;;;;14.88;8.88;;;2.70;68.10;;;;;;5112793;28;20027;-73
2022/03/08 00:37:15;;;;;;;14.77;8.30;;;2.60;68.20;;;;;;5112913;28;20035;-72
2022/03/08 00:39:40;;;;;;;13.32;8.77;;;2.60;68.40;;;;;;5112411;28;20072;-73
2022/03/08 00:42:11;;;;;;;13.52;8.32;;;2.60;68.30;;;;;;5113138;28;20054;-73
2022/03/08 00:44:41;;;;;;;14.32;9.15;;;2.60;68.50;;;;;;5112182;28;20076;-73
2022/03/08 00:47:08;;;;;;;14.27;8.82;;;2.50;68.60;;;;;;5112859;28;20098;-73
2022/03/08 00:49:34;;;;;;;12.27;8.77;;;2.50;68.80;;;;;;5112153;28;20089;-72
2022/03/08 00:52:00;;;;;;;16.00;9.23;;;2.50;69.00;;;;;;5113024;28;20031;-72
2022/03/08 00:54:25;;;;;;;14.57;9.13;;;2.50;69.30;;;;;;5111997;28;20429;-72
2022/03/08 00:56:51;;;;;;;14.73;8.90;;;2.50;69.30;;;;;;5112838;28;20072;-72
2022/03/08 00:59:17;;;;;;;11.57;8.85;;;2.40;69.40;;;;;;5112706;28;20076;-72
2022/03/08 01:01:43;;;;;;;14.82;9.57;;;2.40;69.30;;;;;;5112117;28;20515;-72
2022/03/08 01:04:08;;;;;;;14.35;8.98;;;2.40;69.70;;;;;;5112707;28;20026;-72
2022/03/08 01:06:34;;;;;;;12.32;9.23;;;2.30;69.80;;;;;;5112005;28;20457;-72
2022/03/08 01:09:01;;;;;;;14.13;8.90;;;2.30;70.00;;;;;;5112305;28;20068;-72
2022/03/08 01:11:27;;;;;;;15.35;9.63;;;2.30;69.80;;;;;;5111879;28;20027;-72
2022/03/08 01:13:53;;;;;;;12.82;8.50;;;2.30;69.90;;;;;;5111211;28;20031;-73
2022/03/08 01:16:19;;;;;;;13.40;9.52;;;2.30;70.00;;;;;;5112524;28;20024;-71
2022/03/08 01:18:45;;;;;;;18.65;9.50;;;2.30;70.00;;;;;;5110709;28;20097;-72
2022/03/08 01:21:14;;;;;;;13.55;8.70;;;2.30;70.00;;;;;;5111032;28;20027;-73
2022/03/08 01:23:40;;;;;;;13.70;8.98;;;2.30;70.10;;;;;;5111350;28;20032;-73
2022/03/08 01:26:06;;;;;;;13.02;9.43;;;2.20;70.20;;;;;;5112650;28;20024;-72
2022/03/08 01:28:32;;;;;;;13.68;9.23;;;2.20;70.20;;;;;;5111633;28;20023;-73
2022/03/08 01:30:58;;;;;;;12.95;9.38;;;2.20;70.20;;;;;;5112292;28;20058;-73
2022/03/08 01:33:23;;;;;;;14.98;9.40;;;2.10;70.20;;;;;;5112155;28;20031;-72
2022/03/08 01:35:49;;;;;;;14.15;9.55;;;2.10;70.60;;;;;;5111628;28;20461;-72
2022/03/08 01:38:15;;;;;;;13.45;9.50;;;2.10;70.40;;;;;;5112586;28;20035;-72
2022/03/08 01:40:41;;;;;;;17.58;10.27;;;2.10;70.00;;;;;;5115191;28;20035;-72
2022/03/08 01:43:07;;;;;;;19.17;10.77;;;2.10;69.50;;;;;;5116124;28;20027;-72
2022/03/08 01:45:34;;;;;;;14.82;10.73;;;2.10;69.30;;;;;;5115289;28;20387;-74
2022/03/08 01:48:00;;;;;;;14.38;10.88;;;2.10;69.20;;;;;;5115998;28;20040;-72
2022/03/08 01:50:27;;;;;;;16.08;11.43;;;2.10;69.00;;;;;;5115467;28;20035;-71
2022/03/08 01:52:53;;;;;;;15.40;10.82;;;2.10;68.80;;;;;;5115985;28;20024;-72
2022/03/08 01:55:20;;;;;;;16.38;10.75;;;2.00;68.60;;;;;;5115836;28;20052;-72
2022/03/08 01:57:48;;;;;;;15.15;10.48;;;2.00;68.70;;;;;;5115025;28;20028;-73
2022/03/08 02:00:18;;;;;;;14.43;10.15;;;2.00;68.40;;;;;;5115806;28;20086;-73
2022/03/08 02:02:43;;;;;;;15.82;12.02;;;2.00;68.30;;;;;;5115078;28;20062;-73
2022/03/08 02:05:10;;;;;;;15.90;11.15;;;1.90;68.30;;;;;;5115801;28;20376;-72
2022/03/08 02:07:36;;;;;;;15.45;11.18;;;2.00;68.40;;;;;;5115115;28;20066;-74
2022/03/08 02:10:03;;;;;;;16.15;11.57;;;1.90;68.20;;;;;;5115467;28;20078;-73
2022/03/08 02:12:28;;;;;;;14.27;11.20;;;1.90;68.10;;;;;;5115224;27;20027;-76
2022/03/08 02:14:54;;;;;;;15.57;11.93;;;1.90;68.00;;;;;;5115659;28;20020;-72
2022/03/08 02:17:19;;;;;;;14.25;11.13;;;1.90;67.70;;;;;;5115129;28;20464;-72
2022/03/08 02:19:45;;;;;;;16.20;11.57;;;1.90;67.60;;;;;;5114731;28;20024;-72
2022/03/08 02:22:11;;;;;;;19.55;12.18;;;1.80;67.60;;;;;;5115354;28;20030;-72
2022/03/08 02:24:36;;;;;;;20.13;12.05;;;1.80;67.50;;;;;;5114528;28;20066;-72
2022/03/08 02:27:02;;;;;;;14.82;12.02;;;1.80;67.50;;;;;;5115242;28;20115;-71
2022/03/08 02:29:28;;;;;;;16.55;11.63;;;1.80;67.30;;;;;;5115502;28;20036;-73
2022/03/08 02:31:56;;;;;;;18.50;12.60;;;1.80;67.00;;;;;;5115024;28;20020;-73
2022/03/08 02:34:21;;;;;;;17.15;11.93;;;1.70;67.20;;;;;;5115159;28;20070;-72
2022/03/08 02:37:04;;;;;;;21.20;12.70;;;1.70;67.30;;;;;;5114478;28;20023;-73
2022/03/08 02:39:30;;;;;;;19.05;11.95;;;1.70;67.30;;;;;;5115228;27;20104;-75
2022/03/08 02:41:56;;;;;;;17.25;12.40;;;1.70;67.30;;;;;;5115735;28;20456;-73
2022/03/08 02:44:22;;;;;;;16.35;12.77;;;1.70;67.30;;;;;;5115005;28;20023;-73
2022/03/08 02:46:48;;;;;;;17.70;12.60;;;1.70;67.20;;;;;;5114648;28;20027;-73
2022/03/08 02:49:13;;;;;;;15.32;12.60;;;1.70;67.20;;;;;;5114878;28;20023;-73
2022/03/08 02:51:39;;;;;;;18.83;13.05;;;1.70;67.00;;;;;;5114253;28;20030;-73
2022/03/08 02:54:05;;;;;;;16.55;12.00;;;1.70;67.00;;;;;;5113917;28;20038;-73
2022/03/08 02:56:30;;;;;;;17.60;12.93;;;1.70;67.20;;;;;;5115098;28;20492;-73
2022/03/08 02:58:56;;;;;;;17.00;12.07;;;1.70;67.00;;;;;;5115098;28;20487;-73
2022/03/08 03:01:22;;;;;;;19.90;13.32;;;1.70;67.00;;;;;;5114537;28;20020;-73
2022/03/08 03:03:47;;;;;;;15.52;11.50;;;1.70;67.00;;;;;;5114017;28;20020;-73
2022/03/08 03:06:13;;;;;;;18.90;13.00;;;1.70;66.90;;;;;;5114656;28;20038;-73
2022/03/08 03:08:38;;;;;;;16.48;13.10;;;1.70;66.90;;;;;;5113954;28;20027;-74
2022/03/08 03:11:04;;;;;;;16.17;12.95;;;1.70;66.80;;;;;;5114496;28;20059;-73
2022/03/08 03:13:30;;;;;;;19.60;12.88;;;1.70;66.90;;;;;;5114167;28;20030;-73
2022/03/08 03:15:55;;;;;;;17.45;13.43;;;1.70;66.90;;;;;;5113792;28;20106;-73
2022/03/08 03:18:21;;;;;;;16.70;12.82;;;1.70;66.80;;;;;;5114304;28;20020;-73
2022/03/08 03:20:47;;;;;;;15.57;12.25;;;1.70;66.60;;;;;;5113576;28;20436;-73
2022/03/08 03:23:12;;;;;;;23.25;14.00;;;1.80;66.50;;;;;;5115396;28;20104;-73
2022/03/08 03:25:38;;;;;;;17.52;12.43;;;1.80;66.40;;;;;;5116427;28;20127;-74
2022/03/08 03:28:04;;;;;;;16.90;12.93;;;1.80;66.40;;;;;;5115321;28;20110;-73
2022/03/08 03:30:29;;;;;;;17.45;12.77;;;1.80;66.20;;;;;;5114091;28;20537;-73
2022/03/08 03:32:55;;;;;;;18.80;12.48;;;1.80;66.10;;;;;;5113402;28;20107;-73
2022/03/08 03:35:21;;;;;;;16.63;12.23;;;1.70;65.70;;;;;;5114035;28;20059;-73
2022/03/08 03:37:47;;;;;;;17.52;13.45;;;1.80;66.00;;;;;;5113499;28;20024;-73
2022/03/08 03:40:13;;;;;;;15.65;12.85;;;1.80;65.90;;;;;;5113303;28;20027;-73
2022/03/08 03:42:39;;;;;;;16.90;12.15;;;1.80;65.70;;;;;;5113369;28;20027;-73
2022/03/08 03:45:06;;;;;;;21.63;13.80;;;1.80;65.90;;;;;;5114046;28;20031;-73
2022/03/08 03:47:31;;;;;;;19.83;12.27;;;1.80;65.80;;;;;;5113472;28;20031;-73
2022/03/08 03:49:57;;;;;;;19.58;13.27;;;1.90;65.70;;;;;;5112451;28;20039;-73
2022/03/08 03:52:23;;;;;;;18.65;12.50;;;1.90;65.50;;;;;;5113305;28;20024;-73
2022/03/08 03:54:49;;;;;;;19.48;13.15;;;1.90;65.30;;;;;;5112314;28;20131;-73
2022/03/08 03:57:15;;;;;;;16.02;12.27;;;1.90;65.40;;;;;;5111575;28;20031;-73
2022/03/08 03:59:41;;;;;;;17.83;13.07;;;1.90;65.40;;;;;;5111344;28;20031;-73
2022/03/08 04:02:06;;;;;;;16.05;12.75;;;1.90;65.60;;;;;;5113127;28;20372;-73
2022/03/08 04:04:32;;;;;;;20.65;13.18;;;1.90;65.60;;;;;;5113217;28;20107;-72
2022/03/08 04:06:58;;;;;;;19.60;12.70;;;1.90;65.60;;;;;;5112819;28;20036;-73
2022/03/08 04:09:23;;;;;;;16.15;12.63;;;1.90;65.40;;;;;;5113438;28;20040;-73
2022/03/08 04:11:49;;;;;;;18.85;13.52;;;1.90;65.40;;;;;;5115723;28;20445;-72
2022/03/08 04:14:15;;;;;;;17.92;13.40;;;1.80;65.40;;;;;;5113830;28;20015;-72
2022/03/08 04:16:41;;;;;;;16.52;13.02;;;1.80;65.40;;;;;;5113052;28;20084;-72
2022/03/08 04:19:06;;;;;;;20.30;13.80;;;1.80;65.50;;;;;;5113512;28;20058;-72
2022/03/08 04:21:32;;;;;;;17.27;13.35;;;1.80;65.50;;;;;;5111762;28;20077;-72
2022/03/08 04:23:59;;;;;;;18.75;14.00;;;1.80;65.50;;;;;;5110901;28;20020;-73
2022/03/08 04:26:25;;;;;;;17.52;13.32;;;1.70;66.00;;;;;;5112983;28;20031;-73
2022/03/08 04:28:51;;;;;;;19.50;13.45;;;1.70;65.80;;;;;;5111999;28;20035;-73
2022/03/08 04:31:16;;;;;;;17.15;13.23;;;1.70;65.90;;;;;;5112706;28;20036;-73
2022/03/08 04:33:42;;;;;;;16.65;13.02;;;1.70;66.10;;;;;;5112219;28;20026;-72
2022/03/08 04:36:08;;;;;;;17.27;13.35;;;1.60;66.00;;;;;;5112097;28;20031;-73
2022/03/08 04:38:34;;;;;;;17.77;14.05;;;1.70;66.10;;;;;;5116366;27;20024;-73
2022/03/08 04:41:02;;;;;;;22.55;13.80;;;1.60;66.10;;;;;;5122008;27;20042;-72
2022/03/08 04:43:29;;;;;;;20.77;14.20;;;1.60;66.20;;;;;;5129948;27;20031;-73
2022/03/08 04:45:54;;;;;;;18.75;13.23;;;1.60;66.40;;;;;;5112517;28;20407;-73
2022/03/08 04:48:20;;;;;;;16.02;13.38;;;1.50;66.60;;;;;;5129456;27;20020;-73
2022/03/08 04:50:46;;;;;;;19.85;13.43;;;1.50;66.70;;;;;;5118632;28;20027;-73
2022/03/08 04:53:11;;;;;;;18.58;13.23;;;1.50;66.80;;;;;;5122184;28;20050;-73
2022/03/08 04:55:37;;;;;;;18.30;13.65;;;1.50;66.90;;;;;;5120368;28;20050;-73
2022/03/08 04:58:03;;;;;;;17.40;13.40;;;1.40;66.90;;;;;;5115431;28;20035;-73
2022/03/08 05:00:28;;;;;;;21.63;13.60;;;1.40;67.00;;;;;;5119234;28;20035;-73
2022/03/08 05:02:54;;;;;;;16.58;12.48;;;1.40;67.00;;;;;;5121495;28;20030;-73
2022/03/08 05:05:19;;;;;;;20.83;13.07;;;1.40;67.30;;;;;;5126705;28;20376;-73
2022/03/08 05:07:45;;;;;;;15.70;12.50;;;1.40;67.40;;;;;;5115166;28;20080;-73
2022/03/08 05:10:12;;;;;;;20.42;14.25;;;1.40;67.40;;;;;;5128241;28;20034;-73
2022/03/08 05:12:39;;;;;;;17.85;13.25;;;1.40;67.60;;;;;;5120867;28;20038;-73
2022/03/08 05:15:05;;;;;;;18.02;12.68;;;1.40;67.70;;;;;;5122660;27;20057;-73
2022/03/08 05:17:31;;;;;;;18.25;13.05;;;1.40;67.70;;;;;;5132367;27;20080;-73
2022/03/08 05:19:57;;;;;;;16.75;12.38;;;1.40;67.70;;;;;;5119228;27;20028;-73
2022/03/08 05:22:23;;;;;;;22.45;13.90;;;1.40;67.50;;;;;;5130523;27;20024;-73
2022/03/08 05:24:48;;;;;;;17.63;13.65;;;1.40;67.60;;;;;;5125392;27;20535;-73
2022/03/08 05:27:14;;;;;;;18.98;13.27;;;1.30;67.60;;;;;;5122773;27;20160;-73
2022/03/08 05:29:59;;;;;;;17.80;13.00;;;1.30;67.80;;;;;;5129675;27;20035;-75
2022/03/08 05:32:25;;;;;;;18.40;13.13;;;1.30;68.00;;;;;;5125800;27;20031;-73
2022/03/08 05:34:50;;;;;;;16.45;12.15;;;1.30;68.30;;;;;;5125554;27;20106;-74
2022/03/08 05:37:16;;;;;;;19.48;13.48;;;1.30;68.30;;;;;;5129771;27;20406;-73
2022/03/08 05:39:42;;;;;;;15.68;12.00;;;1.30;68.30;;;;;;5118403;27;20073;-74
2022/03/08 05:42:09;;;;;;;20.42;12.93;;;1.40;68.60;;;;;;5116484;27;20023;-73
2022/03/08 05:44:35;;;;;;;20.65;13.63;;;1.40;68.50;;;;;;5116080;28;20043;-73
2022/03/08 05:47:00;;;;;;;20.75;13.73;;;1.40;68.50;;;;;;5115157;28;20337;-73
2022/03/08 05:49:26;;;;;;;17.83;13.05;;;1.40;68.50;;;;;;5115539;28;20040;-72
2022/03/08 05:51:51;;;;;;;20.58;12.98;;;1.40;68.50;;;;;;5115296;28;20026;-73
2022/03/08 05:54:17;;;;;;;18.38;13.13;;;1.50;68.20;;;;;;5116253;28;20048;-73
2022/03/08 05:56:43;;;;;;;17.48;12.27;;;1.50;68.10;;;;;;5115319;28;20046;-73
2022/03/08 05:59:08;;;;;;;18.08;13.70;;;1.50;67.80;;;;;;5115640;28;20024;-73
2022/03/08 06:01:34;;;;;;;19.88;13.63;;;1.50;67.60;;;;;;5115426;28;20050;-73
2022/03/08 06:04:00;;;;;;;17.35;13.07;;;1.50;67.40;;;;;;5113784;28;20032;-73
2022/03/08 06:06:25;;;;;;;17.52;13.45;;;1.50;67.50;;;;;;5115399;28;20102;-73
2022/03/08 06:08:51;;;;;;;17.38;13.48;;;1.60;67.50;;;;;;5114656;28;20406;-73
2022/03/08 06:11:17;;;;;;;22.38;13.85;;;1.50;67.60;;;;;;5114785;28;20059;-73
2022/03/08 06:13:42;;;;;;;20.30;13.57;;;1.60;67.40;;;;;;5115158;28;20478;-74
2022/03/08 06:16:08;;;;;;;18.50;12.82;;;1.60;67.10;;;;;;5114972;28;20039;-73
2022/03/08 06:18:34;;;;;;;17.92;12.75;;;1.60;67.00;;;;;;5115024;28;20032;-74
2022/03/08 06:20:59;;;;;;;19.55;12.98;;;1.60;66.90;;;;;;5115028;28;20027;-75
2022/03/08 06:23:25;;;;;;;18.45;12.88;;;1.60;66.80;;;;;;5115111;28;20031;-74
2022/03/08 06:25:51;;;;;;;17.70;13.05;;;1.60;66.90;;;;;;5113841;28;20030;-74
2022/03/08 06:28:17;;;;;;;19.02;13.20;;;1.70;67.00;;;;;;5115139;28;20024;-75
2022/03/08 06:30:42;;;;;;;16.42;13.05;;;1.70;66.70;;;;;;5114861;28;20429;-74
2022/03/08 06:33:08;;;;;;;19.75;12.80;;;1.70;66.70;;;;;;5111502;28;20344;-73
2022/03/08 06:35:34;;;;;;;22.05;13.15;;;1.70;66.70;;;;;;5114694;28;20407;-73
2022/03/08 06:38:00;;;;;;;17.20;12.32;;;1.80;66.60;;;;;;5113211;28;20417;-75
2022/03/08 06:40:26;;;;;;;21.70;13.10;;;1.90;66.80;;;;;;5114983;28;20031;-74
2022/03/08 06:42:51;;;;;;;18.08;12.95;;;1.90;66.80;;;;;;5114382;28;20032;-74
2022/03/08 06:45:17;;;;;;;18.25;13.23;;;1.90;66.80;;;;;;5114698;28;20081;-74
2022/03/08 06:47:43;;;;;;;17.75;13.13;;;2.00;66.60;;;;;;5114698;28;20164;-75
2022/03/08 06:50:09;;;;;;;21.95;14.27;;;2.10;66.50;;;;;;5113931;28;20074;-75
2022/03/08 06:52:35;;;;;;;20.27;13.18;;;2.10;66.40;;;;;;5115120;28;20024;-74
2022/03/08 06:55:01;;;;;;;19.92;12.65;;;2.10;66.40;;;;;;5114199;28;20095;-74
2022/03/08 06:57:26;;;;;;;17.42;12.15;;;2.20;66.30;;;;;;5114761;28;20024;-74
2022/03/08 06:59:52;;;;;;;18.55;12.05;;;2.30;66.10;;;;;;5113782;28;20035;-75
2022/03/08 07:02:18;;;;;;;15.95;11.95;;;2.40;66.10;;;;;;5114839;28;20030;-75
2022/03/08 07:04:44;;;;;;;19.42;11.50;;;2.40;65.80;;;;;;5114509;28;20032;-73
2022/03/08 07:07:09;;;;;;;18.25;11.95;;;2.50;66.00;;;;;;5113839;28;20046;-73
2022/03/08 07:09:35;;;;;;;18.40;11.95;;;2.50;65.70;;;;;;5114494;28;20035;-75
2022/03/08 07:12:01;;;;;;;20.90;12.68;;;2.50;65.40;;;;;;5113122;28;20031;-75
2022/03/08 07:14:26;;;;;;;18.65;12.40;;;2.60;65.50;;;;;;5114106;28;20020;-74
2022/03/08 07:16:52;;;;;;;17.77;12.00;;;2.70;65.30;;;;;;5113165;28;20044;-75
2022/03/08 07:19:18;;;;;;;22.80;11.65;;;2.70;65.60;;;;;;5114301;28;20024;-74
2022/03/08 07:21:45;;;;;;;19.73;12.90;;;2.70;64.90;;;;;;5113936;28;20066;-75
2022/03/08 07:24:12;;;;;;;21.10;13.00;;;2.80;64.80;;;;;;5113026;28;20110;-74
2022/03/08 07:26:38;;;;;;;20.90;12.13;;;2.90;64.70;;;;;;5113876;28;20106;-73
2022/03/08 07:29:04;;;;;;;22.70;13.30;;;3.00;64.40;;;;;;5113284;28;20047;-73
2022/03/08 07:31:29;;;;;;;18.15;12.10;;;3.10;64.50;;;;;;5113539;28;20031;-73
2022/03/08 07:33:55;;;;;;;20.92;11.55;;;3.20;64.50;;;;;;5113101;28;20534;-74
2022/03/08 07:36:21;;;;;;;19.02;12.63;;;3.30;64.50;;;;;;5113357;28;20149;-75
2022/03/08 07:38:47;;;;;;;19.88;11.82;;;3.40;63.40;;;;;;5113260;28;20046;-75
2022/03/08 07:41:13;;;;;;;16.20;10.68;;;3.60;63.70;;;;;;5113298;28;20039;-73
2022/03/08 07:43:39;;;;;;;16.52;10.80;;;3.90;63.20;;;;;;5113851;28;20034;-75
2022/03/08 07:46:07;;;;;;;18.15;11.32;;;4.40;63.10;;;;;;5113111;28;20020;-75
2022/03/08 07:48:34;;;;;;;16.02;10.15;;;4.60;61.30;;;;;;5112566;28;20361;-74
2022/03/08 07:51:00;;;;;;;14.98;10.65;;;4.90;61.10;;;;;;5112915;28;20063;-74
2022/03/08 07:53:26;;;;;;;15.00;9.63;;;5.10;59.60;;;;;;5113643;28;20110;-73
2022/03/08 07:55:52;;;;;;;16.67;9.70;;;5.40;58.60;;;;;;5112884;28;20369;-74
2022/03/08 07:58:17;;;;;;;15.98;9.40;;;5.60;57.40;;;;;;5113625;28;20073;-74
2022/03/08 08:00:44;;;;;;;18.70;9.55;;;5.80;57.80;;;;;;5112133;28;20055;-75
2022/03/08 08:03:09;;;;;;;16.50;9.00;;;6.10;57.20;;;;;;5112577;28;20035;-74
2022/03/08 08:05:36;;;;;;;14.75;9.55;;;6.30;55.40;;;;;;5113465;28;20023;-74
2022/03/08 08:08:03;;;;;;;16.42;9.90;;;6.60;55.30;;;;;;5112797;28;20038;-75
2022/03/08 08:10:29;;;;;;;14.45;8.88;;;6.70;54.30;;;;;;5113396;28;20031;-74
2022/03/08 08:12:54;;;;;;;12.80;8.50;;;6.90;52.90;;;;;;5112824;28;20084;-75
2022/03/08 08:15:20;;;;;;;16.38;9.75;;;7.10;52.40;;;;;;5113357;28;20360;-74
2022/03/08 08:17:46;;;;;;;13.90;9.27;;;7.30;52.20;;;;;;5112156;28;20058;-77
2022/03/08 08:20:12;;;;;;;15.65;8.68;;;7.60;51.60;;;;;;5112667;28;20255;-75
2022/03/08 08:22:38;;;;;;;17.95;9.25;;;8.00;50.20;;;;;;5113180;28;20031;-75
2022/03/08 08:25:05;;;;;;;12.52;7.88;;;8.40;49.00;;;;;;5112563;28;20118;-74
2022/03/08 08:27:31;;;;;;;16.95;9.02;;;8.50;48.60;;;;;;5113167;28;20028;-74
2022/03/08 08:29:56;;;;;;;14.27;9.13;;;8.40;48.30;;;;;;5112352;28;20095;-76
2022/03/08 08:32:22;;;;;;;14.23;8.60;;;8.40;48.50;;;;;;5111891;28;20020;-75
2022/03/08 08:34:48;;;;;;;14.02;8.52;;;8.50;48.40;;;;;;5112811;28;20049;-76
2022/03/08 08:37:13;;;;;;;15.68;9.52;;;8.50;48.30;;;;;;5112620;28;20034;-75
2022/03/08 08:39:39;;;;;;;16.55;9.07;;;8.60;48.20;;;;;;5113398;28;20027;-74
2022/03/08 08:42:06;;;;;;;16.30;9.70;;;8.60;48.10;;;;;;5112159;28;20019;-75
2022/03/08 08:44:32;;;;;;;14.98;9.13;;;8.70;48.50;;;;;;5112893;28;20030;-75
2022/03/08 08:46:58;;;;;;;15.35;9.88;;;8.70;47.60;;;;;;5112982;28;20024;-75
2022/03/08 08:49:25;;;;;;;14.70;10.15;;;8.80;47.80;;;;;;5113359;28;20081;-75
2022/03/08 08:51:51;;;;;;;12.85;9.00;;;8.90;48.20;;;;;;5113083;28;20060;-74
2022/03/08 08:54:17;;;;;;;14.18;9.07;;;9.00;47.20;;;;;;5112572;28;20028;-75
2022/03/08 08:56:43;;;;;;;13.27;8.68;;;9.00;47.30;;;;;;5117645;28;20104;-74
2022/03/08 08:59:09;;;;;;;16.88;9.38;;;9.10;47.50;;;;;;5124522;28;20019;-76
2022/03/08 09:01:34;;;;;;;15.20;9.45;;;9.10;46.80;;;;;;5122002;28;20035;-76
2022/03/08 09:04:00;;;;;;;15.43;9.57;;;9.20;46.90;;;;;;5113644;28;20023;-75
2022/03/08 09:06:27;;;;;;;12.90;9.43;;;9.20;46.20;;;;;;5112584;28;20024;-74
2022/03/08 09:08:54;;;;;;;14.85;9.13;;;9.20;46.30;;;;;;5113745;28;20062;-75
2022/03/08 09:11:20;;;;;;;18.23;10.70;;;9.20;45.90;;;;;;5112630;28;20353;-75
2022/03/08 09:13:46;;;;;;;14.60;9.27;;;9.20;46.70;;;;;;5111958;28;20460;-75
2022/03/08 09:16:14;;;;;;;14.98;9.68;;;9.30;46.10;;;;;;5112398;28;20024;-76
2022/03/08 09:18:41;;;;;;;16.33;9.38;;;9.40;46.10;;;;;;5112606;28;20095;-75
2022/03/08 09:21:06;;;;;;;16.25;9.52;;;9.40;46.10;;;;;;5112210;28;20031;-75
2022/03/08 09:23:32;;;;;;;15.50;8.98;;;9.50;45.70;;;;;;5112411;28;20406;-75
2022/03/08 09:25:58;;;;;;;14.20;9.13;;;9.60;45.60;;;;;;5112115;28;20059;-74
2022/03/08 09:28:23;;;;;;;15.32;9.77;;;9.60;45.00;;;;;;5112484;28;20024;-74
2022/03/08 09:30:49;;;;;;;15.70;8.63;;;9.60;45.00;;;;;;5112136;28;20036;-74
2022/03/08 09:33:15;;;;;;;13.68;9.27;;;9.60;44.80;;;;;;5111677;28;20092;-74
2022/03/08 09:35:40;;;;;;;17.80;9.85;;;9.60;44.90;;;;;;5112294;28;20069;-75
2022/03/08 09:38:06;;;;;;;15.27;9.80;;;9.70;45.20;;;;;;5111699;28;20499;-74
2022/03/08 09:40:32;;;;;;;14.38;9.23;;;9.70;45.50;;;;;;5112251;28;20517;-74
2022/03/08 09:42:58;;;;;;;16.83;9.40;;;9.80;45.20;;;;;;5111158;28;20456;-75
2022/03/08 09:45:24;;;;;;;14.02;9.45;;;9.70;44.30;;;;;;5112066;28;20031;-74
2022/03/08 09:47:50;;;;;;;12.45;8.80;;;9.70;44.90;;;;;;5112276;28;20106;-74
2022/03/08 09:50:16;;;;;;;15.60;8.55;;;9.80;44.80;;;;;;5111554;28;20032;-74
2022/03/08 09:52:42;;;;;;;15.73;8.25;;;9.80;44.60;;;;;;5111051;28;20039;-74
2022/03/08 09:55:12;;;;;;;15.20;9.05;;;9.70;44.10;;;;;;5111455;28;20368;-73
2022/03/08 09:57:38;;;;;;;18.10;9.80;;;9.70;44.90;;;;;;5112305;28;20091;-74
2022/03/08 10:00:06;;;;;;;13.70;9.00;;;9.60;44.60;;;;;;5112286;28;20080;-73
2022/03/08 10:02:43;;;;;;;14.32;9.05;;;9.60;44.80;;;;;;5115748;28;20054;-73
2022/03/08 10:05:09;;;;;;;15.73;9.73;;;9.60;44.90;;;;;;5115297;28;20027;-75
2022/03/08 10:07:35;;;;;;;15.73;10.07;;;9.60;44.90;;;;;;5114475;28;20024;-75
2022/03/08 10:10:00;;;;;;;15.02;8.45;;;9.70;45.20;;;;;;5114943;28;20039;-73
2022/03/08 10:12:27;;;;;;;13.68;8.13;;;9.70;45.10;;;;;;5115637;28;20028;-74
2022/03/08 10:14:53;;;;;;;15.48;8.90;;;9.90;45.90;;;;;;5115516;28;20111;-74
2022/03/08 10:17:40;;;;;;;15.55;8.77;;;9.90;44.90;;;;;;5114943;28;20097;-75
2022/03/08 10:20:09;;;;;;;13.02;8.57;;;10.10;44.50;;;;;;5114908;28;20113;-74
2022/03/08 10:22:40;;;;;;;11.60;8.63;;;10.10;44.40;;;;;;5115341;28;20028;-74
2022/03/08 10:25:17;;;;;;;13.63;8.50;;;10.20;44.10;;;;;;5114484;28;20476;-74
2022/03/08 10:28:04;;;;;;;14.30;8.00;;;10.30;43.70;;;;;;5115411;28;20027;-73
2022/03/08 10:30:45;;;;;;;13.23;7.40;;;10.30;43.80;;;;;;5113952;28;20430;-74
2022/03/08 10:33:12;;;;;;;8.45;5.10;;;10.30;44.00;;;;;;5114688;28;20435;-73
2022/03/08 10:35:43;;;;;;;9.93;6.35;;;10.40;43.00;;;;;;5115262;28;20464;-74
2022/03/08 10:38:14;;;;;;;9.45;6.07;;;10.40;42.40;;;;;;5113216;28;20035;-73
2022/03/08 10:40:41;;;;;;;9.27;4.63;;;10.50;42.70;;;;;;5115443;28;20070;-75
2022/03/08 10:43:09;;;;;;;6.85;4.22;;;10.50;40.50;;;;;;5114424;28;20032;-75
2022/03/08 10:45:39;;;;;;;5.80;4.15;;;10.60;40.10;;;;;;5114952;28;20024;-75
2022/03/08 10:48:07;;;;;;;7.13;5.20;;;10.60;39.70;;;;;;5113120;28;20383;-74
2022/03/08 10:50:36;;;;;;;8.50;5.30;;;10.70;40.40;;;;;;5116495;28;20031;-74
2022/03/08 10:53:05;;;;;;;11.70;5.53;;;10.70;40.20;;;;;;5113538;28;20475;-74
2022/03/08 10:55:39;;;;;;;8.73;6.65;;;10.80;40.60;;;;;;5114671;28;20059;-75
2022/03/08 10:58:05;;;;;;;10.55;6.05;;;10.80;40.20;;;;;;5114171;28;20357;-76
2022/03/08 11:00:32;;;;;;;11.40;6.40;;;10.90;40.20;;;;;;5114609;28;20054;-74
2022/03/08 11:03:09;;;;;;;15.93;6.60;;;11.00;40.90;;;;;;5114539;28;20102;-74
2022/03/08 11:05:38;;;;;;;14.88;7.57;;;11.00;40.10;;;;;;5114814;28;20031;-74
2022/03/08 11:08:05;;;;;;;11.18;6.38;;;10.90;40.10;;;;;;5113098;28;20039;-76
2022/03/08 11:10:32;;;;;;;8.23;6.32;;;10.80;40.50;;;;;;5114406;28;20071;-74
2022/03/08 11:12:58;;;;;;;9.63;6.50;;;10.80;40.90;;;;;;5113470;28;20113;-74
2022/03/08 11:15:26;;;;;;;10.63;6.55;;;10.80;40.30;;;;;;5113847;28;20159;-74
2022/03/08 11:17:53;;;;;;;10.15;6.80;;;10.70;40.40;;;;;;5113913;28;20034;-74
2022/03/08 11:20:21;;;;;;;12.32;7.25;;;10.70;40.30;;;;;;5113530;28;20031;-74
2022/03/08 11:22:48;;;;;;;10.88;7.07;;;10.70;40.80;;;;;;5114055;28;20027;-74
2022/03/08 11:25:16;;;;;;;10.82;7.03;;;10.70;40.70;;;;;;5113369;28;20024;-74
2022/03/08 11:27:45;;;;;;;15.80;7.22;;;10.70;40.80;;;;;;5119946;28;20023;-74
2022/03/08 11:30:15;;;;;;;11.98;7.07;;;10.60;41.20;;;;;;5117488;28;20555;-74
2022/03/08 11:33:07;;;;;;;10.98;6.88;;;10.60;40.70;;;;;;5117943;28;20028;-74
2022/03/08 11:35:49;;;;;;;14.05;7.03;;;10.50;40.90;;;;;;5106687;28;20402;-75
2022/03/08 11:38:15;;;;;;;11.77;6.97;;;10.40;41.00;;;;;;5113628;28;20513;-75
2022/03/08 11:40:53;;;;;;;13.40;5.93;;;10.30;40.90;;;;;;5114229;28;20503;-74
2022/03/08 11:43:19;;;;;;;10.25;6.70;;;10.30;40.90;;;;;;5113423;28;20106;-74
2022/03/08 11:45:48;;;;;;;11.60;6.60;;;10.20;41.20;;;;;;5113815;28;20100;-75
2022/03/08 11:48:19;;;;;;;8.63;6.18;;;10.20;42.00;;;;;;5113036;28;20031;-75
2022/03/08 11:50:45;;;;;;;13.10;7.75;;;10.30;42.40;;;;;;5113536;28;20043;-74
2022/03/08 11:53:24;;;;;;;10.63;4.85;;;10.40;41.40;;;;;;5112811;28;20490;-75
2022/03/08 11:55:56;;;;;;;11.15;5.80;;;10.30;39.70;;;;;;5113751;28;20392;-73
2022/03/08 11:58:45;;;;;;;9.95;5.05;;;10.30;39.90;;;;;;5113025;28;20027;-73
2022/03/08 12:01:32;;;;;;;10.98;5.22;;;10.20;40.30;;;;;;5113049;28;20031;-73
2022/03/08 12:04:16;;;;;;;9.95;6.57;;;10.10;41.10;;;;;;5113478;28;20038;-75
2022/03/08 12:06:53;;;;;;;12.45;6.25;;;9.90;40.80;;;;;;5113347;28;20027;-74
2022/03/08 12:09:21;;;;;;;10.80;5.22;;;9.80;40.80;;;;;;5111618;28;20107;-73
2022/03/08 12:11:58;;;;;;;5.72;3.90;;;9.70;40.20;;;;;;5113293;28;20058;-74
2022/03/08 12:14:38;;;;;;;7.72;4.47;;;9.60;39.50;;;;;;5111174;28;20463;-74
2022/03/08 12:17:19;;;;;;;7.30;4.13;;;9.60;39.90;;;;;;5113359;28;20104;-73
2022/03/08 12:19:47;;;;;;;8.32;4.97;;;9.70;39.90;;;;;;5113297;28;20023;-74
2022/03/08 12:22:15;;;;;;;8.45;5.10;;;9.70;40.60;;;;;;5112317;28;20027;-74
2022/03/08 12:24:50;;;;;;;7.15;5.05;;;9.70;39.40;;;;;;5112815;28;20023;-73
2022/03/08 12:27:17;;;;;;;7.13;5.43;;;9.80;39.20;;;;;;5112528;28;20106;-74
2022/03/08 12:29:51;;;;;;;8.55;4.90;;;9.80;39.10;;;;;;5112819;28;20036;-74
2022/03/08 12:32:23;;;;;;;8.23;5.10;;;9.80;38.90;;;;;;5112406;28;20031;-73
2022/03/08 12:35:01;;;;;;;14.63;5.68;;;9.90;39.00;;;;;;5113271;28;20028;-73
2022/03/08 12:37:52;;;;;;;9.45;5.97;;;9.90;39.00;;;;;;5112290;28;20451;-74
2022/03/08 12:40:20;;;;;;;8.43;5.53;;;9.90;39.00;;;;;;5112323;28;20070;-74